EPSY

Szczytno-Szymany International Airport

Poland
METAR EPSY 201430Z VRB03KT 9999 FEW040TCU 25/18 Q1009
Observed Flight Rules
Jul-20 @ 14:30 UTC (14 minutes ago) Visual Flight Rules
Wind Visibility Clouds
Variable at 3 knots 10,000+ meters
  • Few at 4,000' AGL
Temperatures Readings
Current 25°C / 77°F
Dewpoint 18°C / 64°F
Humidity 65%
Altimeter 29.79" Hg
Pressure 1009 hPa
Elevation 141
METAR EPSY 201430Z VRB03KT 9999 FEW040TCU 25/18 Q1009
Observed Flight Rules
Jul-20 @ 14:30 UTC
(14 minutes ago)
VFR
Wind Visibility
Variable at 3 knots 10,000+ meters
Clouds
  • Few at 4,000' AGL
Temperature Dewpoint
25°C / 77°F 18°C / 64°F
Humidity Altimeter Pressure
65% 29.79" Hg 1009 hPa